Time;durP1;ratioP1;P1;durP2;ratioP2;P2;SDS_P1;SDS_P2;PMS_P1;PMS_P2;Temp;Humidity;BMP_temperature;BMP_pressure;BME280_temperature;BME280_humidity;BME280_pressure;Samples;Min_cycle;Max_cycle;Signal;HPM_P1;HPM_P2
2021/07/12 00:00:23;;;;;;;10.80;7.45;;;;;;;20.85;61.00;98658.63;5087759;28;20123;-88
2021/07/12 00:02:50;;;;;;;15.90;6.40;;;;;;;20.72;61.17;98664.03;5091322;28;20055;-88
2021/07/12 00:05:18;;;;;;;7.82;5.70;;;;;;;20.72;61.39;98658.63;5089107;28;20075;-89
2021/07/12 00:07:48;;;;;;;9.35;6.13;;;;;;;20.65;61.52;98649.25;5089193;28;20040;-88
2021/07/12 00:10:16;;;;;;;10.10;6.53;;;;;;;20.64;60.88;98652.91;5086408;28;20052;-89
2021/07/12 00:12:43;;;;;;;12.50;5.95;;;;;;;20.56;61.09;98646.25;5090531;28;20070;-89
2021/07/12 00:15:11;;;;;;;9.70;6.35;;;;;;;20.35;61.79;98640.53;5088121;28;20433;-88
2021/07/12 00:17:38;;;;;;;10.13;6.18;;;;;;;20.32;61.79;98647.03;5088317;28;20048;-89
2021/07/12 00:20:05;;;;;;;9.00;6.07;;;;;;;20.21;62.01;98636.06;5090513;28;20533;-89
2021/07/12 00:22:31;;;;;;;9.75;6.22;;;;;;;20.19;62.47;98651.50;5090296;28;20123;-89
2021/07/12 00:24:58;;;;;;;10.13;6.18;;;;;;;20.03;62.48;98627.41;5089933;28;20464;-88
2021/07/12 00:27:24;;;;;;;13.63;6.68;;;;;;;19.96;62.58;98635.06;5090373;28;20044;-89
2021/07/12 00:29:51;;;;;;;9.80;6.20;;;;;;;19.97;63.08;98647.56;5090059;28;20043;-88
2021/07/12 00:32:17;;;;;;;8.10;5.57;;;;;;;19.93;62.85;98637.09;5087790;28;20493;-89
2021/07/12 00:34:43;;;;;;;10.05;6.25;;;;;;;19.84;63.15;98638.56;5090632;28;20075;-88
2021/07/12 00:37:08;;;;;;;11.65;6.60;;;;;;;19.80;63.41;98624.44;5090311;28;20047;-89
2021/07/12 00:39:35;;;;;;;9.80;6.18;;;;;;;19.69;63.07;98624.25;5089687;28;20115;-89
2021/07/12 00:42:02;;;;;;;10.43;5.90;;;;;;;19.66;63.55;98633.41;5087581;28;20453;-88
2021/07/12 00:44:28;;;;;;;11.15;6.03;;;;;;;19.76;62.83;98652.59;5088729;28;20051;-88
2021/07/12 00:46:54;;;;;;;9.90;5.85;;;;;;;19.72;62.92;98647.50;5085959;28;20501;-88
2021/07/12 00:49:20;;;;;;;11.93;6.05;;;;;;;19.56;63.46;98640.41;5089007;28;20490;-88
2021/07/12 00:51:45;;;;;;;14.32;6.03;;;;;;;19.56;63.68;98642.22;5088903;28;20127;-89
2021/07/12 00:54:11;;;;;;;9.57;5.95;;;;;;;19.56;64.03;98636.81;5089775;28;20059;-89
2021/07/12 00:56:37;;;;;;;9.93;6.05;;;;;;;19.47;63.82;98619.41;5089333;28;20033;-89
2021/07/12 00:59:05;;;;;;;9.77;6.20;;;;;;;19.57;63.58;98639.41;5089111;28;20086;-89
2021/07/12 01:01:33;;;;;;;10.43;6.10;;;;;;;19.48;63.83;98616.63;5074463;28;20055;-89
2021/07/12 01:03:59;;;;;;;;;;;;;;;19.56;63.79;98634.13;5076302;28;20389;-89
2021/07/12 01:06:25;;;;;;;10.98;6.00;;;;;;;19.52;63.79;98624.50;5075493;28;20019;-90
2021/07/12 01:08:51;;;;;;;9.18;6.18;;;;;;;19.35;64.29;98614.84;5075567;28;20071;-87
2021/07/12 01:11:26;;;;;;;9.45;6.28;;;;;;;19.34;64.74;98629.28;5075370;28;20068;-89
2021/07/12 01:13:59;;;;;;;11.15;6.30;;;;;;;19.22;65.24;98622.88;5075432;28;20063;-89
2021/07/12 01:16:42;;;;;;;12.10;6.60;;;;;;;19.19;64.70;98605.06;5071519;28;20043;-90
2021/07/12 01:19:27;;;;;;;9.88;6.30;;;;;;;19.31;64.55;98626.78;5075543;28;20703;-89
2021/07/12 01:22:30;;;;;;;10.18;6.13;;;;;;;19.31;64.60;98635.75;5074664;28;20079;-88
2021/07/12 01:25:32;;;;;;;10.15;6.50;;;;;;;19.07;65.94;98638.19;5075308;28;20043;-88
2021/07/12 01:28:51;;;;;;;10.40;6.32;;;;;;;19.09;65.49;98630.88;5058732;28;20565;-88
2021/07/12 01:32:07;;;;;;;11.27;6.20;;;;;;;19.12;65.53;98629.81;5030352;28;20041;-89
2021/07/12 01:34:41;;;;;;;11.05;5.65;;;;;;;19.02;65.49;98626.84;5031901;28;20102;-87
2021/07/12 01:37:15;;;;;;;11.15;6.00;;;;;;;19.09;65.24;98631.72;5031747;28;20144;-89
2021/07/12 01:39:46;;;;;;;10.80;6.85;;;;;;;19.04;65.87;98628.47;5032916;28;20072;-89
2021/07/12 01:42:18;;;;;;;9.05;5.97;;;;;;;18.97;66.09;98619.03;5032924;28;20582;-88
2021/07/12 01:44:53;;;;;;;10.70;6.28;;;;;;;18.97;65.85;98610.94;5032600;28;20072;-88
2021/07/12 01:47:29;;;;;;;10.57;6.25;;;;;;;18.99;65.90;98610.84;5029037;28;20076;-88
2021/07/12 01:50:04;;;;;;;11.27;6.35;;;;;;;19.03;65.41;98618.66;5032445;28;20056;-89
2021/07/12 01:52:38;;;;;;;12.70;6.53;;;;;;;19.00;66.09;98621.53;5032480;28;20180;-88
2021/07/12 01:55:11;;;;;;;10.65;6.07;;;;;;;18.97;66.10;98618.16;5033610;28;20503;-88
2021/07/12 01:57:47;;;;;;;9.43;7.05;;;;;;;18.92;66.52;98618.47;5032183;28;20044;-89
2021/07/12 02:00:14;;;;;;;12.05;6.75;;;;;;;18.84;66.38;98615.38;5029770;28;20041;-87
2021/07/12 02:02:44;;;;;;;9.68;6.60;;;;;;;18.80;66.67;98619.25;5032950;28;20491;-89
2021/07/12 02:05:17;;;;;;;10.32;6.15;;;;;;;18.75;66.58;98618.63;5056830;28;20040;-89
2021/07/12 02:07:44;;;;;;;13.82;6.32;;;;;;;18.75;66.86;98624.03;5075013;28;20037;-88
2021/07/12 02:10:11;;;;;;;13.32;7.10;;;;;;;18.69;66.92;98633.34;5074608;28;20044;-88
2021/07/12 02:12:39;;;;;;;12.13;6.47;;;;;;;18.57;67.16;98618.84;5073283;28;20119;-89
2021/07/12 02:15:07;;;;;;;12.97;6.70;;;;;;;18.66;67.70;98645.19;5071554;28;20698;-88
2021/07/12 02:17:34;;;;;;;8.68;5.80;;;;;;;18.63;67.59;98645.38;5074157;28;20032;-88
2021/07/12 02:20:02;;;;;;;10.27;6.88;;;;;;;18.59;68.02;98634.91;5074909;28;20040;-89
2021/07/12 02:22:29;;;;;;;10.38;6.75;;;;;;;18.45;68.65;98636.63;5073551;28;20050;-89
2021/07/12 02:24:56;;;;;;;8.82;6.38;;;;;;;18.44;68.82;98640.25;5074429;28;20055;-88
2021/07/12 02:27:23;;;;;;;12.45;7.00;;;;;;;18.39;69.52;98644.19;5074221;28;20032;-88
2021/07/12 02:29:51;;;;;;;13.38;6.38;;;;;;;18.35;69.69;98656.13;5073258;28;20036;-88
2021/07/12 02:32:18;;;;;;;13.13;7.00;;;;;;;18.30;69.25;98637.53;5071698;28;20040;-89
2021/07/12 02:34:44;;;;;;;13.15;7.30;;;;;;;18.36;69.75;98655.16;5074832;28;20423;-89
2021/07/12 02:37:12;;;;;;;11.23;7.28;;;;;;;18.33;69.61;98647.28;5074375;28;20116;-88
2021/07/12 02:39:40;;;;;;;12.52;7.43;;;;;;;18.23;70.31;98658.56;5071682;28;20047;-89
2021/07/12 02:42:07;;;;;;;11.95;6.90;;;;;;;18.25;70.11;98659.34;5072973;28;20045;-89
2021/07/12 02:44:37;;;;;;;12.25;7.15;;;;;;;18.26;69.69;98666.47;5074067;28;20797;-88
2021/07/12 02:47:04;;;;;;;12.07;7.00;;;;;;;18.35;70.04;98675.81;5071211;28;20036;-88
2021/07/12 02:49:30;;;;;;;11.77;7.75;;;;;;;18.38;70.02;98691.78;5073974;28;20052;-89
2021/07/12 02:51:59;;;;;;;11.57;8.27;;;;;;;18.32;70.09;98684.06;5074446;28;20040;-89
2021/07/12 02:54:28;;;;;;;11.85;7.55;;;;;;;18.33;70.14;98685.81;5073176;28;20062;-89
2021/07/12 02:56:58;;;;;;;;;;;;;;;18.36;70.05;98682.06;5073073;28;20375;-88
2021/07/12 02:59:27;;;;;;;13.75;6.90;;;;;;;18.34;69.88;98681.28;5073922;28;19931;-89
2021/07/12 03:01:53;;;;;;;9.70;6.68;;;;;;;18.28;69.82;98685.22;5071547;28;20027;-90
2021/07/12 03:04:18;;;;;;;13.05;7.40;;;;;;;18.31;70.04;98686.88;5074121;28;20040;-89
2021/07/12 03:06:50;;;;;;;12.38;7.30;;;;;;;18.34;69.98;98692.91;5072775;28;20086;-87
2021/07/12 03:09:24;;;;;;;9.43;6.65;;;;;;;18.26;70.40;98677.25;5072246;28;20398;-89
2021/07/12 03:11:54;;;;;;;9.95;6.97;;;;;;;18.29;70.41;98686.97;5071933;28;20401;-89
2021/07/12 03:14:30;;;;;;;10.55;6.85;;;;;;;18.29;70.48;98686.97;5074136;28;20037;-88
2021/07/12 03:16:57;;;;;;;10.45;6.63;;;;;;;18.27;70.98;98691.56;5070223;28;20036;-88
2021/07/12 03:19:28;;;;;;;13.15;7.40;;;;;;;18.21;71.38;98673.94;5073801;28;20044;-88
2021/07/12 03:21:57;;;;;;;9.20;6.82;;;;;;;18.29;71.02;98680.72;5073899;28;20037;-88
2021/07/12 03:24:26;;;;;;;9.30;6.97;;;;;;;18.26;70.93;98668.31;5073220;28;20041;-89
2021/07/12 03:26:54;;;;;;;11.98;7.38;;;;;;;18.26;71.52;98679.09;5072908;28;20128;-88
2021/07/12 03:29:22;;;;;;;10.90;7.25;;;;;;;18.24;71.47;98687.25;5071363;28;20028;-89
2021/07/12 03:31:49;;;;;;;11.73;7.40;;;;;;;18.14;71.75;98669.91;5070688;28;20479;-89
2021/07/12 03:34:23;;;;;;;11.98;6.95;;;;;;;18.22;71.83;98689.16;5073597;28;20371;-89
2021/07/12 03:36:49;;;;;;;11.80;7.75;;;;;;;18.13;72.46;98689.72;5073031;28;20036;-87
2021/07/12 03:39:16;;;;;;;10.57;7.43;;;;;;;18.32;71.66;98693.97;5073913;28;20036;-88
2021/07/12 03:41:42;;;;;;;10.15;7.88;;;;;;;18.31;71.11;98671.59;5073522;28;20482;-88
2021/07/12 03:44:08;;;;;;;11.15;8.13;;;;;;;18.39;71.09;98688.16;5073633;28;20045;-90
2021/07/12 03:46:41;;;;;;;12.82;7.97;;;;;;;18.24;71.38;98673.78;5070635;28;20032;-89
2021/07/12 03:49:10;;;;;;;14.02;7.93;;;;;;;18.23;71.47;98680.09;5073129;28;20054;-89
2021/07/12 03:51:35;;;;;;;;;;;;;;;18.36;71.64;98700.91;5073796;28;20085;-88
2021/07/12 03:54:01;;;;;;;13.68;8.68;;;;;;;18.07;72.71;98700.84;5069583;28;19998;-88
2021/07/12 03:56:27;;;;;;;19.02;9.75;;;;;;;17.94;73.40;98710.59;5073761;28;20048;-88
2021/07/12 03:58:53;;;;;;;13.20;8.57;;;;;;;17.88;72.93;98695.66;5073713;28;20486;-88
2021/07/12 04:01:19;;;;;;;14.32;7.93;;;;;;;17.99;73.25;98713.84;5071634;28;20071;-87
2021/07/12 04:03:47;;;;;;;10.27;7.68;;;;;;;17.90;72.42;98714.41;5072129;28;20044;-87
2021/07/12 04:06:13;;;;;;;15.05;8.15;;;;;;;18.12;72.12;98763.31;5072970;28;20044;-89
2021/07/12 04:08:39;;;;;;;12.20;8.02;;;;;;;18.15;71.97;98765.84;5073543;28;20036;-88
2021/07/12 04:11:05;;;;;;;13.68;8.32;;;;;;;18.19;71.47;98762.00;5073082;28;20045;-89
2021/07/12 04:13:31;;;;;;;13.13;7.70;;;;;;;18.38;71.17;98774.38;5073104;28;20033;-88
2021/07/12 04:15:57;;;;;;;10.55;7.55;;;;;;;18.42;71.00;98770.56;5070693;28;20049;-89
2021/07/12 04:18:23;;;;;;;11.48;8.00;;;;;;;18.29;71.61;98766.84;5073206;28;20032;-87
2021/07/12 04:20:50;;;;;;;12.35;7.32;;;;;;;18.21;71.59;98784.31;5072931;28;20105;-88
2021/07/12 04:23:16;;;;;;;13.23;8.10;;;;;;;18.33;71.95;98806.09;5073183;28;20041;-89
2021/07/12 04:25:42;;;;;;;15.55;9.02;;;;;;;18.35;72.12;98798.81;5071481;28;20581;-89
2021/07/12 04:28:08;;;;;;;11.80;7.78;;;;;;;18.33;71.78;98782.72;5073591;28;20131;-90
2021/07/12 04:30:34;;;;;;;11.23;8.02;;;;;;;18.50;71.52;98784.44;5070361;28;20048;-89
2021/07/12 04:33:00;;;;;;;10.68;8.15;;;;;;;18.52;71.33;98776.25;5073169;28;20099;-89
2021/07/12 04:35:26;;;;;;;11.73;7.97;;;;;;;18.55;71.50;98790.41;5073833;28;20044;-89
2021/07/12 04:37:53;;;;;;;14.95;7.97;;;;;;;18.48;71.38;98759.44;5076928;28;20056;-89
2021/07/12 04:40:19;;;;;;;13.50;8.05;;;;;;;18.63;71.21;98782.75;5076765;28;20040;-88
2021/07/12 04:42:45;;;;;;;14.40;8.73;;;;;;;18.60;70.71;98765.88;5076822;28;20039;-89
2021/07/12 04:45:12;;;;;;;14.32;8.65;;;;;;;18.63;70.78;98757.66;5074602;28;20045;-89
2021/07/12 04:47:37;;;;;;;15.60;8.18;;;;;;;18.71;70.91;98773.31;5075543;28;20041;-88
2021/07/12 04:50:04;;;;;;;17.63;8.80;;;;;;;18.71;70.63;98758.03;5073184;28;20517;-89
2021/07/12 04:52:30;;;;;;;12.20;7.55;;;;;;;18.67;70.59;98756.47;5075363;28;20040;-89
2021/07/12 04:54:57;;;;;;;14.80;8.68;;;;;;;18.81;70.45;98767.31;5076640;28;20067;-88
2021/07/12 04:57:23;;;;;;;12.70;8.30;;;;;;;18.97;70.18;98774.47;5076675;28;20040;-89
2021/07/12 04:59:51;;;;;;;12.88;7.88;;;;;;;19.09;70.02;98768.34;5080241;28;20040;-90
2021/07/12 05:02:17;;;;;;;14.43;8.18;;;;;;;19.29;69.03;98753.59;5077032;28;20037;-89
2021/07/12 05:04:42;;;;;;;11.10;8.35;;;;;;;19.48;67.54;98756.00;5077197;28;20119;-89
2021/07/12 05:07:11;;;;;;;10.98;8.23;;;;;;;19.78;66.90;98747.81;5076995;28;20036;-89
2021/07/12 05:09:37;;;;;;;15.38;8.55;;;;;;;20.28;65.15;98753.53;5078559;28;20043;-90
2021/07/12 05:15:00;;;;;;;10.60;8.15;;;;;;;20.93;63.30;98766.22;5090692;27;20583;-92
2021/07/12 05:17:26;;;;;;;13.55;8.25;;;;;;;21.37;61.48;98756.78;5091731;28;20052;-89
2021/07/12 05:19:52;;;;;;;12.60;8.32;;;;;;;21.70;59.89;98747.25;5091645;28;20041;-90
2021/07/12 05:22:22;;;;;;;15.88;8.00;;;;;;;22.01;59.34;98755.81;5091732;28;20123;-89
2021/07/12 05:24:49;;;;;;;13.48;8.48;;;;;;;22.39;58.26;98768.38;5089115;28;20929;-89
2021/07/12 05:27:16;;;;;;;12.15;8.18;;;;;;;22.64;57.59;98773.66;5090036;28;20440;-89
2021/07/12 05:29:52;;;;;;;12.82;7.60;;;;;;;23.06;56.12;98759.63;5091769;28;20033;-89
2021/07/12 05:32:20;;;;;;;12.30;8.13;;;;;;;23.29;55.32;98741.50;5090481;28;20032;-89
2021/07/12 05:34:47;;;;;;;;;;;;;;;23.20;55.27;98755.78;5089886;28;20490;-88
2021/07/12 05:37:15;;;;;;;13.52;8.60;;;;;;;23.32;55.12;98739.41;5091575;28;19952;-90
2021/07/12 05:39:45;;;;;;;10.43;7.38;;;;;;;23.43;55.50;98730.41;5091941;28;20086;-89
2021/07/12 05:42:13;;;;;;;12.85;7.72;;;;;;;23.45;54.71;98727.56;5092938;28;20051;-89
2021/07/12 05:44:42;;;;;;;12.20;8.07;;;;;;;23.39;55.15;98734.34;5089883;28;20381;-88
2021/07/12 05:47:12;;;;;;;14.05;8.13;;;;;;;23.30;54.97;98727.81;5086782;28;20028;-89
2021/07/12 05:49:40;;;;;;;12.32;8.45;;;;;;;23.42;54.47;98734.13;5093679;28;20089;-90
2021/07/12 05:52:06;;;;;;;12.68;8.48;;;;;;;23.06;56.11;98737.91;5090563;28;20123;-90
2021/07/12 05:54:32;;;;;;;12.55;8.13;;;;;;;23.21;55.82;98736.69;5090551;28;20033;-89
2021/07/12 05:56:57;;;;;;;17.02;8.60;;;;;;;22.95;56.78;98730.59;5090302;28;20508;-90
2021/07/12 05:59:23;;;;;;;12.45;8.05;;;;;;;22.30;58.44;98740.97;5090465;28;20101;-89
2021/07/12 06:01:49;;;;;;;10.85;8.00;;;;;;;22.46;57.57;98712.72;5088438;28;20444;-91
2021/07/12 06:04:15;;;;;;;11.98;7.35;;;;;;;22.86;57.05;98728.59;5091555;28;20052;-90
2021/07/12 06:06:42;;;;;;;13.10;8.55;;;;;;;22.55;57.10;98712.00;5090690;28;20371;-90
2021/07/12 06:09:08;;;;;;;19.75;8.68;;;;;;;22.30;57.82;98713.03;5091067;28;20036;-90
2021/07/12 06:11:34;;;;;;;12.68;8.25;;;;;;;22.26;58.72;98722.38;5093616;28;20109;-90
2021/07/12 06:13:59;;;;;;;13.60;8.13;;;;;;;22.80;57.17;98731.78;5090250;28;20028;-90
2021/07/12 06:16:28;;;;;;;15.07;7.93;;;;;;;23.07;56.61;98734.19;5088887;28;20493;-89
2021/07/12 06:18:53;;;;;;;18.50;8.85;;;;;;;23.12;56.01;98730.16;5089349;28;20413;-89
2021/07/12 06:21:19;;;;;;;12.57;7.43;;;;;;;23.62;55.11;98748.78;5090910;28;20036;-90
2021/07/12 06:23:47;;;;;;;16.58;7.90;;;;;;;23.70;53.96;98751.75;5091459;28;20047;-90
2021/07/12 06:26:12;;;;;;;15.73;8.20;;;;;;;23.37;55.31;98755.31;5078795;28;20033;-90
2021/07/12 06:28:38;;;;;;;15.05;8.02;;;;;;;23.49;55.02;98751.63;5078191;28;20521;-92
2021/07/12 06:31:04;;;;;;;11.93;7.80;;;;;;;23.61;55.07;98751.63;5075680;28;20036;-90
2021/07/12 06:33:30;;;;;;;13.27;7.68;;;;;;;23.93;53.79;98755.31;5075232;28;20513;-91
2021/07/12 06:35:56;;;;;;;11.88;8.35;;;;;;;23.18;55.38;98755.91;5075139;28;20036;-90
2021/07/12 06:38:22;;;;;;;12.75;7.32;;;;;;;23.26;55.84;98736.31;5075470;28;20040;-92
2021/07/12 06:40:49;;;;;;;10.60;7.22;;;;;;;23.79;54.24;98744.72;5075129;28;20040;-90
2021/07/12 06:43:15;;;;;;;12.32;7.30;;;;;;;24.07;53.41;98718.88;5075116;28;20078;-91
2021/07/12 06:45:42;;;;;;;13.93;7.72;;;;;;;24.52;51.84;98728.72;5072996;28;20037;-90
2021/07/12 06:48:09;;;;;;;12.45;7.40;;;;;;;24.65;51.80;98707.63;5074504;28;20223;-91
2021/07/12 06:50:35;;;;;;;11.60;7.20;;;;;;;24.83;51.12;98710.63;5075047;28;20037;-90
2021/07/12 06:53:01;;;;;;;16.52;7.30;;;;;;;25.04;51.17;98712.47;5074978;28;20041;-90
2021/07/12 06:55:27;;;;;;;18.00;8.25;;;;;;;25.21;49.75;98707.28;5074344;28;20045;-90
2021/07/12 06:57:55;;;;;;;11.50;6.63;;;;;;;25.30;49.86;98707.47;5075576;28;20041;-90
2021/07/12 07:00:21;;;;;;;12.73;7.97;;;;;;;25.45;49.54;98719.72;5073160;28;20037;-91
2021/07/12 07:02:46;;;;;;;11.80;6.95;;;;;;;25.58;49.32;98720.31;5075230;28;20570;-91
2021/07/12 07:05:12;;;;;;;13.43;7.50;;;;;;;25.78;48.97;98717.66;5075090;28;20043;-91
2021/07/12 07:07:38;;;;;;;12.82;7.68;;;;;;;25.70;48.07;98693.88;5074717;28;20040;-91
2021/07/12 07:10:06;;;;;;;10.88;7.20;;;;;;;26.00;47.28;98722.94;5074994;28;20040;-91
2021/07/12 07:12:32;;;;;;;13.87;7.97;;;;;;;25.83;48.64;98705.38;5074714;28;20055;-92
2021/07/12 07:15:00;;;;;;;11.25;7.50;;;;;;;25.89;47.39;98708.56;5072904;28;20482;-91
2021/07/12 07:17:26;;;;;;;11.80;7.47;;;;;;;25.74;48.70;98711.66;5074649;28;20044;-92
2021/07/12 07:19:52;;;;;;;15.32;6.90;;;;;;;25.91;47.92;98685.59;5074566;28;20074;-92
2021/07/12 07:22:18;;;;;;;10.77;7.15;;;;;;;26.14;46.17;98693.53;5074409;28;20037;-91
2021/07/12 07:24:44;;;;;;;14.15;6.68;;;;;;;25.80;45.96;98697.44;5074776;28;20032;-92
2021/07/12 07:27:10;;;;;;;11.45;7.57;;;;;;;25.47;47.53;98709.53;5075276;28;20044;-92
2021/07/12 07:29:36;;;;;;;12.75;7.45;;;;;;;25.31;49.30;98693.72;5074045;28;20555;-89
2021/07/12 07:32:04;;;;;;;10.40;7.53;;;;;;;25.83;48.35;98693.63;5072214;28;20040;-91
2021/07/12 07:34:30;;;;;;;9.02;6.90;;;;;;;26.06;47.08;98680.59;5074240;28;20498;-91
2021/07/12 07:39:51;;;;;;;10.55;6.82;;;;;;;26.82;44.20;98686.19;5090433;27;20384;-91
2021/07/12 07:42:17;;;;;;;13.02;7.25;;;;;;;27.08;44.13;98674.63;5090272;28;20036;-92
2021/07/12 07:44:43;;;;;;;12.95;6.82;;;;;;;27.19;44.03;98665.41;5089270;28;20688;-91
2021/07/12 07:47:10;;;;;;;10.32;7.05;;;;;;;27.17;43.29;98654.66;5088534;28;20076;-90
2021/07/12 07:49:36;;;;;;;10.05;6.95;;;;;;;27.14;43.86;98637.72;5090447;28;20044;-90
2021/07/12 07:52:02;;;;;;;11.45;6.93;;;;;;;27.34;42.83;98630.31;5090290;28;20040;-91
2021/07/12 07:54:28;;;;;;;11.23;6.60;;;;;;;27.25;43.12;98612.97;5088571;28;20037;-92
2021/07/12 07:56:55;;;;;;;14.77;7.03;;;;;;;27.36;42.46;98611.91;5089803;28;20531;-90
2021/07/12 07:59:21;;;;;;;8.52;6.35;;;;;;;27.58;42.96;98616.94;5089524;28;20040;-91
2021/07/12 08:01:47;;;;;;;10.90;6.70;;;;;;;27.53;42.68;98605.63;5087534;28;20040;-89
2021/07/12 08:04:13;;;;;;;11.23;6.30;;;;;;;27.80;42.11;98604.72;5089425;28;20390;-90
2021/07/12 08:06:38;;;;;;;9.10;6.35;;;;;;;27.55;42.38;98595.41;5089094;28;20033;-90
2021/07/12 08:09:04;;;;;;;10.95;7.63;;;;;;;27.85;41.98;98593.38;5089536;28;20032;-90
2021/07/12 08:11:31;;;;;;;14.73;6.85;;;;;;;27.97;40.77;98572.97;5088157;28;20047;-88
2021/07/12 08:14:01;;;;;;;8.93;6.20;;;;;;;28.01;39.51;98576.25;5087339;28;20520;-90
2021/07/12 08:16:28;;;;;;;9.23;5.72;;;;;;;27.92;39.95;98564.38;5085851;28;20060;-91
2021/07/12 08:19:01;;;;;;;8.13;6.00;;;;;;;28.27;39.04;98541.59;5086456;28;20037;-89
2021/07/12 08:21:29;;;;;;;7.18;5.30;;;;;;;28.52;37.88;98524.53;5088504;28;20036;-90
2021/07/12 08:23:58;;;;;;;11.20;6.00;;;;;;;28.74;38.77;98512.19;5089225;28;20389;-89
2021/07/12 08:26:25;;;;;;;11.55;6.35;;;;;;;28.77;39.09;98488.06;5086695;28;20119;-90
2021/07/12 08:28:55;;;;;;;8.70;6.00;;;;;;;28.50;38.30;98478.19;5088697;28;20044;-91
2021/07/12 08:31:29;;;;;;;11.88;6.35;;;;;;;28.68;38.44;98517.28;5086893;28;20028;-91
2021/07/12 08:34:00;;;;;;;8.90;6.22;;;;;;;28.92;38.61;98525.78;5086426;28;20055;-91
2021/07/12 08:36:30;;;;;;;9.55;6.03;;;;;;;29.19;38.09;98531.06;5089368;28;20559;-90
2021/07/12 08:38:56;;;;;;;8.05;6.13;;;;;;;28.87;39.00;98532.59;5088725;28;20037;-90
2021/07/12 08:41:25;;;;;;;9.52;6.28;;;;;;;28.93;38.64;98535.69;5088126;28;20040;-91
2021/07/12 08:43:55;;;;;;;9.32;6.25;;;;;;;28.88;38.66;98538.91;5088705;28;20508;-91
2021/07/12 08:46:25;;;;;;;8.80;5.88;;;;;;;28.26;39.82;98556.31;5078468;28;20387;-89
2021/07/12 08:48:50;;;;;;;;;;;;;;;27.28;41.38;98565.38;5081759;28;20044;-90
2021/07/12 08:51:16;;;;;;;11.10;5.97;;;;;;;27.35;41.95;98559.19;5068599;28;20378;-89
2021/07/12 08:53:42;;;;;;;11.20;6.63;;;;;;;27.40;41.73;98553.25;5069229;28;20041;-90
2021/07/12 08:56:08;;;;;;;12.60;6.50;;;;;;;27.98;40.48;98558.28;5070235;28;21323;-88
2021/07/12 08:58:34;;;;;;;11.93;5.97;;;;;;;28.60;38.89;98573.81;5070224;28;20048;-90
2021/07/12 09:01:03;;;;;;;9.20;5.68;;;;;;;29.26;37.61;98586.00;5067595;28;20044;-90
2021/07/12 09:03:33;;;;;;;8.30;5.78;;;;;;;28.95;37.79;98588.38;5067725;28;20502;-91
2021/07/12 09:06:05;;;;;;;11.23;6.00;;;;;;;28.81;38.21;98582.50;5069134;28;20059;-90
2021/07/12 09:08:39;;;;;;;10.77;6.00;;;;;;;29.47;37.16;98599.25;5070451;28;20048;-92
2021/07/12 09:11:13;;;;;;;11.40;6.75;;;;;;;28.92;37.88;98614.22;5070530;28;20390;-89
2021/07/12 09:13:44;;;;;;;11.65;6.20;;;;;;;28.55;38.17;98614.50;5067584;28;20053;-89
2021/07/12 09:16:31;;;;;;;11.45;6.30;;;;;;;29.51;37.94;98610.75;5071527;28;20401;-90
2021/07/12 09:19:10;;;;;;;9.45;5.75;;;;;;;29.87;36.06;98606.75;5073544;28;20067;-91
2021/07/12 09:21:39;;;;;;;12.98;6.55;;;;;;;29.88;36.70;98613.09;5071538;28;20033;-90
2021/07/12 09:24:19;;;;;;;12.25;6.15;;;;;;;29.61;35.38;98603.25;5071169;28;20048;-90
2021/07/12 09:26:48;;;;;;;7.10;5.60;;;;;;;29.45;32.14;98607.66;5072014;28;20525;-90
2021/07/12 09:29:15;;;;;;;10.10;5.68;;;;;;;29.03;35.46;98607.59;5073379;28;20147;-90
2021/07/12 09:31:41;;;;;;;7.32;5.35;;;;;;;29.24;34.18;98602.59;5067895;28;20048;-89
2021/07/12 09:34:08;;;;;;;8.10;5.05;;;;;;;29.66;31.32;98612.66;5072886;28;20036;-90
2021/07/12 09:36:35;;;;;;;7.93;4.30;;;;;;;29.32;31.62;98611.88;5072452;28;20055;-91
2021/07/12 09:39:19;;;;;;;9.98;4.18;;;;;;;29.87;28.92;98601.28;5071387;28;20052;-89
2021/07/12 09:41:47;;;;;;;6.63;4.13;;;;;;;30.26;28.02;98588.81;5072426;28;20402;-89
2021/07/12 09:44:13;;;;;;;5.82;3.65;;;;;;;29.84;26.67;98581.56;5070863;28;20041;-90
2021/07/12 09:46:38;;;;;;;8.52;5.03;;;;;;;29.53;29.29;98584.88;5070290;28;20512;-91
2021/07/12 09:49:09;;;;;;;7.93;5.18;;;;;;;29.72;30.47;98607.59;5073292;28;20033;-90
2021/07/12 09:51:35;;;;;;;9.32;5.88;;;;;;;29.77;32.52;98600.56;5073438;28;20039;-89
2021/07/12 09:54:18;;;;;;;11.60;5.53;;;;;;;29.35;34.34;98595.13;5073656;28;20033;-90
2021/07/12 09:56:44;;;;;;;6.75;4.45;;;;;;;30.09;30.04;98607.97;5072936;28;20045;-91
2021/07/12 09:59:12;;;;;;;6.95;3.83;;;;;;;30.64;26.22;98600.09;5073570;28;20040;-90
2021/07/12 10:01:38;;;;;;;8.23;4.28;;;;;;;31.08;28.63;98586.81;5068187;28;20051;-89
2021/07/12 10:04:04;;;;;;;8.68;4.78;;;;;;;30.93;28.15;98587.75;5073034;28;20028;-90
2021/07/12 10:06:32;;;;;;;9.95;5.57;;;;;;;30.82;30.20;98599.91;5073218;28;20059;-90
2021/07/12 10:08:59;;;;;;;5.93;4.00;;;;;;;31.27;26.08;98596.53;5073282;28;20428;-88
2021/07/12 10:11:25;;;;;;;7.45;3.85;;;;;;;31.49;26.28;98596.81;5072837;28;20120;-92
2021/07/12 10:13:51;;;;;;;8.15;4.30;;;;;;;31.16;27.67;98596.06;5072571;28;20471;-90
2021/07/12 10:16:17;;;;;;;10.77;4.28;;;;;;;30.97;28.19;98597.31;5069596;28;20044;-90
2021/07/12 10:18:43;;;;;;;5.88;4.13;;;;;;;30.80;28.44;98586.34;5072256;28;20090;-89
2021/07/12 10:21:09;;;;;;;6.43;4.13;;;;;;;31.13;26.79;98586.28;5072441;28;20060;-88
2021/07/12 10:23:37;;;;;;;7.57;4.18;;;;;;;31.36;26.71;98591.88;5072745;28;20032;-91
2021/07/12 10:26:03;;;;;;;4.72;3.28;;;;;;;31.29;22.63;98578.00;5072944;28;20043;-92
2021/07/12 10:28:37;;;;;;;4.90;3.17;;;;;;;31.70;22.52;98594.25;5072488;28;20076;-90
2021/07/12 10:31:16;;;;;;;3.85;2.80;;;;;;;31.56;19.56;98581.31;5068761;28;20389;-90
2021/07/12 10:33:43;;;;;;;6.80;3.58;;;;;;;31.02;21.20;98590.28;5071152;28;20040;-90
2021/07/12 10:36:08;;;;;;;5.72;3.30;;;;;;;31.39;21.82;98594.25;5072054;28;20451;-89
2021/07/12 10:38:38;;;;;;;5.47;3.33;;;;;;;31.55;22.44;98581.47;5072030;28;20044;-91
2021/07/12 10:41:15;;;;;;;5.28;3.42;;;;;;;31.68;23.48;98582.59;5072350;28;20039;-90
2021/07/12 10:43:46;;;;;;;7.30;3.63;;;;;;;31.47;22.58;98587.91;5072654;28;20092;-89
2021/07/12 10:46:38;;;;;;;4.50;3.00;;;;;;;30.85;23.86;98583.94;5068643;28;20128;-90
2021/07/12 10:49:25;;;;;;;5.55;3.40;;;;;;;30.91;23.65;98580.53;5064361;28;20505;-89
2021/07/12 10:51:51;;;;;;;6.97;3.88;;;;;;;31.02;23.82;98568.31;5071667;28;20045;-91
2021/07/12 10:54:20;;;;;;;10.93;3.78;;;;;;;31.15;23.65;98573.22;5072093;28;20048;-89
2021/07/12 10:56:50;;;;;;;7.53;3.85;;;;;;;31.32;22.98;98574.03;5072139;28;20506;-91
2021/07/12 10:59:28;;;;;;;5.60;3.55;;;;;;;31.48;22.84;98567.59;5072063;28;20565;-90
2021/07/12 11:01:57;;;;;;;7.80;3.60;;;;;;;31.75;22.23;98559.88;5069708;28;20446;-89
2021/07/12 11:04:37;;;;;;;6.20;3.45;;;;;;;31.27;21.75;98571.81;5072700;28;20055;-87
2021/07/12 11:07:06;;;;;;;5.53;3.40;;;;;;;31.41;23.16;98561.94;5069747;28;20043;-91
2021/07/12 11:10:00;;;;;;;7.78;4.07;;;;;;;31.69;22.96;98555.97;5071197;28;20399;-89
2021/07/12 11:12:52;;;;;;;7.60;3.38;;;;;;;32.08;22.97;98542.13;5070954;28;20082;-90
2021/07/12 11:15:34;;;;;;;19.50;6.72;;;;;;;32.29;22.50;98543.31;5068757;28;20119;-90
2021/07/12 11:18:08;;;;;;;7.93;3.97;;;;;;;32.03;22.99;98555.59;5071608;28;20041;-90
2021/07/12 11:21:04;;;;;;;5.90;3.90;;;;;;;32.21;22.27;98546.16;5071543;28;20063;-89
2021/07/12 11:23:53;;;;;;;5.00;3.40;;;;;;;32.19;22.06;98543.59;5069691;28;20068;-88
2021/07/12 11:26:48;;;;;;;6.15;3.72;;;;;;;32.14;22.88;98546.06;5069156;28;20052;-91
2021/07/12 11:29:33;;;;;;;6.90;4.03;;;;;;;32.06;22.33;98544.22;5071082;28;20103;-89
2021/07/12 11:32:08;;;;;;;5.43;4.20;;;;;;;32.10;22.93;98540.06;5067691;28;20490;-89
2021/07/12 11:34:37;;;;;;;6.18;4.05;;;;;;;32.10;22.49;98522.69;5069092;28;20539;-89
2021/07/12 11:37:05;;;;;;;6.35;4.00;;;;;;;31.78;22.98;98510.03;5070438;28;20036;-88
2021/07/12 11:39:32;;;;;;;5.95;4.10;;;;;;;32.05;22.82;98525.97;5070286;28;20933;-90
2021/07/12 11:42:11;;;;;;;8.57;4.23;;;;;;;31.98;22.90;98530.53;5071732;28;20516;-89
2021/07/12 11:44:37;;;;;;;7.00;4.60;;;;;;;32.30;23.77;98523.88;5070484;28;20047;-90